Time;durP1;ratioP1;P1;durP2;ratioP2;P2;SDS_P1;SDS_P2;PMS_P1;PMS_P2;Temp;Humidity;BMP_temperature;BMP_pressure;BME280_temperature;BME280_humidity;BME280_pressure;Samples;Min_cycle;Max_cycle;Signal;HPM_P1;HPM_P2
2021/12/07 00:02:09;;;;;;;4.35;2.80;;;;;;;;;;5044194;28;20551;-62
2021/12/07 00:04:37;;;;;;;3.80;2.63;;;;;;;;;;5042908;28;20037;-62
2021/12/07 00:07:04;;;;;;;5.93;2.88;;;;;;;;;;5038028;28;20128;-62
2021/12/07 00:09:31;;;;;;;5.10;2.90;;;;;;;;;;5045679;28;20147;-62
2021/12/07 00:12:03;;;;;;;5.30;3.35;;;;;;;;;;5041670;28;20132;-62
2021/12/07 00:14:37;;;;;;;4.40;2.97;;;;;;;;;;5043276;28;20054;-63
2021/12/07 00:17:04;;;;;;;6.50;2.90;;;;;;;;;;5037722;28;20092;-63
2021/12/07 00:19:31;;;;;;;6.40;2.83;;;;;;;;;;5041628;28;20455;-62
2021/12/07 00:21:58;;;;;;;4.68;2.67;;;;;;;;;;5040334;28;20072;-62
2021/12/07 00:24:25;;;;;;;4.03;2.85;;;;;;;;;;5043610;28;20140;-62
2021/12/07 00:26:51;;;;;;;3.33;2.37;;;;;;;;;;5038666;28;20124;-62
2021/12/07 00:29:18;;;;;;;4.80;2.65;;;;;;;;;;5040984;28;20096;-62
2021/12/07 00:31:55;;;;;;;8.20;3.00;;;;;;;;;;5041187;28;20071;-63
2021/12/07 00:36:59;;;;;;;3.70;2.28;;;;;;;;;;5040440;28;20068;-63
2021/12/07 00:39:25;;;;;;;5.15;2.70;;;;;;;;;;5039418;28;20063;-62
2021/12/07 00:41:52;;;;;;;4.15;2.40;;;;;;;;;;5042741;28;20131;-62
2021/12/07 00:44:19;;;;;;;;;;;;;;;;;;5046554;28;20407;-62
2021/12/07 00:46:46;;;;;;;2.20;1.83;;;;;;;;;;5042561;28;19963;-62
2021/12/07 00:49:12;;;;;;;3.40;2.13;;;;;;;;;;5043002;28;20096;-63
2021/12/07 00:51:39;;;;;;;3.95;2.45;;;;;;;;;;5041247;28;20088;-62
2021/12/07 00:54:06;;;;;;;4.40;2.50;;;;;;;;;;5036921;28;20439;-62
2021/12/07 00:56:33;;;;;;;3.63;2.50;;;;;;;;;;5037799;28;20084;-63
2021/12/07 00:58:59;;;;;;;3.15;1.92;;;;;;;;;;5045724;28;20124;-62
2021/12/07 01:01:26;;;;;;;3.57;2.13;;;;;;;;;;5040868;28;20096;-62
2021/12/07 01:03:53;;;;;;;2.78;1.98;;;;;;;;;;5040606;28;20037;-63
2021/12/07 01:06:33;;;;;;;3.42;2.20;;;;;;;;;;5041141;28;20087;-63
2021/12/07 01:09:17;;;;;;;4.70;2.90;;;;;;;;;;5043471;28;20153;-63
2021/12/07 01:25:37;;;;;;;5.37;2.60;;;;;;;;;;5042693;28;20081;-62
2021/12/07 01:28:13;;;;;;;3.20;2.37;;;;;;;;;;5042144;28;20567;-62
2021/12/07 01:30:49;;;;;;;4.17;2.67;;;;;;;;;;5042114;28;20081;-62
2021/12/07 01:36:21;;;;;;;3.77;2.50;;;;;;;;;;5043374;28;20128;-62
2021/12/07 02:00:07;;;;;;;3.53;2.40;;;;;;;;;;5046903;28;20076;-62
2021/12/07 02:02:34;;;;;;;6.53;2.47;;;;;;;;;;5041517;28;20144;-62
2021/12/07 02:05:00;;;;;;;3.38;2.22;;;;;;;;;;5043429;28;20182;-62
2021/12/07 02:07:27;;;;;;;4.75;2.63;;;;;;;;;;5042072;28;20124;-62
2021/12/07 02:09:57;;;;;;;4.32;2.40;;;;;;;;;;5036528;28;20137;-63
2021/12/07 02:12:24;;;;;;;3.97;2.63;;;;;;;;;;5048307;28;20159;-62
2021/12/07 02:14:51;;;;;;;4.68;2.67;;;;;;;;;;5043059;28;20056;-62
2021/12/07 02:17:21;;;;;;;2.67;1.75;;;;;;;;;;5043391;28;20092;-62
2021/12/07 02:19:48;;;;;;;2.73;1.90;;;;;;;;;;5042951;28;20080;-62
2021/12/07 02:22:17;;;;;;;;;;;;;;;;;;5039318;28;20084;-62
2021/12/07 02:24:44;;;;;;;3.75;2.50;;;;;;;;;;5041991;28;20015;-63
2021/12/07 02:27:10;;;;;;;;;;;;;;;;;;5041594;28;20137;-62
2021/12/07 02:29:37;;;;;;;4.37;2.50;;;;;;;;;;5038188;28;19921;-62
2021/12/07 02:32:05;;;;;;;3.55;2.13;;;;;;;;;;5041862;28;20085;-62
2021/12/07 02:34:32;;;;;;;2.93;2.10;;;;;;;;;;5042271;28;20096;-63
2021/12/07 02:36:59;;;;;;;3.58;2.42;;;;;;;;;;5044814;28;20572;-62
2021/12/07 02:39:33;;;;;;;2.97;2.23;;;;;;;;;;5036260;28;20826;-63
2021/12/07 02:42:01;;;;;;;3.47;2.37;;;;;;;;;;5037071;28;20080;-62
2021/12/07 02:44:27;;;;;;;3.47;2.53;;;;;;;;;;5038168;28;20123;-62
2021/12/07 02:46:54;;;;;;;3.40;1.95;;;;;;;;;;5048558;28;20111;-63
2021/12/07 02:49:21;;;;;;;4.10;2.50;;;;;;;;;;5047285;28;20087;-62
2021/12/07 02:51:47;;;;;;;2.35;2.03;;;;;;;;;;5047714;28;20045;-62
2021/12/07 02:54:14;;;;;;;2.72;1.88;;;;;;;;;;5039939;28;21073;-63
2021/12/07 02:56:41;;;;;;;3.35;2.08;;;;;;;;;;5045286;28;20140;-62
2021/12/07 02:59:07;;;;;;;3.63;1.73;;;;;;;;;;5041317;28;20087;-63
2021/12/07 03:01:40;;;;;;;3.45;2.10;;;;;;;;;;5040686;28;20124;-63
2021/12/07 03:04:13;;;;;;;2.20;1.87;;;;;;;;;;5035241;28;20124;-63
2021/12/07 03:28:19;;;;;;;3.30;1.87;;;;;;;;;;5042866;28;20145;-63
2021/12/07 03:30:45;;;;;;;3.03;1.00;;;;;;;;;;5040892;28;20077;-63
2021/12/07 03:33:12;;;;;;;1.67;1.33;;;;;;;;;;5044386;28;20091;-62
2021/12/07 03:35:38;;;;;;;3.07;1.70;;;;;;;;;;5045725;28;20295;-62
2021/12/07 03:38:06;;;;;;;3.47;2.08;;;;;;;;;;5042839;28;20334;-62
2021/12/07 03:40:33;;;;;;;2.53;1.73;;;;;;;;;;5030899;28;20081;-62
2021/12/07 03:43:00;;;;;;;1.67;1.48;;;;;;;;;;5043735;28;20087;-62
2021/12/07 03:45:26;;;;;;;1.63;1.52;;;;;;;;;;5042554;28;20092;-62
2021/12/07 03:47:53;;;;;;;2.83;1.93;;;;;;;;;;5040392;28;20133;-63
2021/12/07 03:50:21;;;;;;;3.08;1.75;;;;;;;;;;5036586;28;20509;-62
2021/12/07 03:52:49;;;;;;;3.00;2.10;;;;;;;;;;5042048;28;20132;-63
2021/12/07 03:55:15;;;;;;;1.13;1.00;;;;;;;;;;5040777;28;20127;-62
2021/12/07 03:57:42;;;;;;;2.67;1.70;;;;;;;;;;5034840;28;20053;-63
2021/12/07 04:00:15;;;;;;;2.15;1.60;;;;;;;;;;5039774;28;20592;-62
2021/12/07 04:02:42;;;;;;;2.63;1.67;;;;;;;;;;5040954;28;20124;-62
2021/12/07 04:05:14;;;;;;;2.50;1.70;;;;;;;;;;5044040;28;20098;-63
2021/12/07 04:07:41;;;;;;;2.67;2.00;;;;;;;;;;5042732;28;20081;-63
2021/12/07 04:10:09;;;;;;;2.20;1.75;;;;;;;;;;5038530;28;20087;-62
2021/12/07 04:12:36;;;;;;;3.97;2.30;;;;;;;;;;5041643;28;20061;-62
2021/12/07 04:15:04;;;;;;;3.50;2.00;;;;;;;;;;5037662;28;20091;-63
2021/12/07 04:17:31;;;;;;;2.40;1.90;;;;;;;;;;5045462;28;20296;-63
2021/12/07 04:19:57;;;;;;;1.50;1.40;;;;;;;;;;5041670;28;20127;-62
2021/12/07 04:22:24;;;;;;;4.00;1.77;;;;;;;;;;5044014;28;20156;-62
2021/12/07 04:24:51;;;;;;;3.10;1.45;;;;;;;;;;5037413;28;20073;-62
2021/12/07 04:27:18;;;;;;;;;;;;;;;;;;5041021;28;20561;-63
2021/12/07 04:29:45;;;;;;;3.93;1.90;;;;;;;;;;5038951;28;20016;-63
2021/12/07 04:32:11;;;;;;;;;;;;;;;;;;5044768;28;20143;-62
2021/12/07 04:34:39;;;;;;;2.57;1.73;;;;;;;;;;5037260;28;19971;-62
2021/12/07 04:37:05;;;;;;;2.78;1.80;;;;;;;;;;5038638;28;20076;-63
2021/12/07 04:39:32;;;;;;;2.53;1.58;;;;;;;;;;5035295;28;20128;-62
2021/12/07 04:41:58;;;;;;;8.40;2.97;;;;;;;;;;5041733;28;20125;-62
2021/12/07 04:44:25;;;;;;;2.30;1.83;;;;;;;;;;5045902;28;20097;-63
2021/12/07 04:57:44;;;;;;;5.63;2.00;;;;;;;;;;5046493;28;20500;-63
2021/12/07 05:00:24;;;;;;;4.07;1.83;;;;;;;;;;5033490;28;20081;-63
2021/12/07 05:02:55;;;;;;;3.23;1.70;;;;;;;;;;5047313;28;20135;-63
2021/12/07 05:05:27;;;;;;;2.47;1.50;;;;;;;;;;5042740;28;20161;-63
2021/12/07 05:07:55;;;;;;;2.23;1.80;;;;;;;;;;5045006;28;20085;-63
2021/12/07 05:10:29;;;;;;;2.37;1.93;;;;;;;;;;5043673;28;20087;-63
2021/12/07 05:13:25;;;;;;;4.17;1.90;;;;;;;;;;5043246;28;20480;-63
2021/12/07 05:39:48;;;;;;;3.87;2.07;;;;;;;;;;5040676;28;20133;-62
2021/12/07 05:42:15;;;;;;;2.53;1.83;;;;;;;;;;5042378;28;20567;-62
2021/12/07 05:44:41;;;;;;;2.00;1.80;;;;;;;;;;5044522;28;20111;-63
2021/12/07 05:47:08;;;;;;;3.22;1.90;;;;;;;;;;5042628;28;20045;-62
2021/12/07 05:49:39;;;;;;;2.87;2.00;;;;;;;;;;5048075;28;20048;-62
2021/12/07 05:52:06;;;;;;;1.65;1.20;;;;;;;;;;5039167;28;20041;-62
2021/12/07 05:54:32;;;;;;;2.05;1.63;;;;;;;;;;5039902;28;20091;-63
2021/12/07 05:56:59;;;;;;;2.53;1.97;;;;;;;;;;5042958;28;20073;-62
2021/12/07 05:59:25;;;;;;;2.67;1.67;;;;;;;;;;5047178;28;20382;-62
2021/12/07 06:01:52;;;;;;;2.63;1.60;;;;;;;;;;5040739;28;20128;-62
2021/12/07 06:04:19;;;;;;;2.80;1.75;;;;;;;;;;5043456;28;20103;-63
2021/12/07 06:06:45;;;;;;;2.47;1.73;;;;;;;;;;5041561;28;20088;-62
2021/12/07 06:09:12;;;;;;;2.55;1.67;;;;;;;;;;5048597;28;20140;-63
2021/12/07 06:11:38;;;;;;;2.07;1.57;;;;;;;;;;5039586;28;20516;-63
2021/12/07 06:14:04;;;;;;;2.50;1.90;;;;;;;;;;5041588;28;20145;-63
2021/12/07 06:16:32;;;;;;;1.98;1.73;;;;;;;;;;5046154;28;20053;-63
2021/12/07 06:18:58;;;;;;;3.60;2.08;;;;;;;;;;5040949;28;20049;-63
2021/12/07 06:21:25;;;;;;;3.38;2.00;;;;;;;;;;5039027;28;20520;-63
2021/12/07 06:23:53;;;;;;;4.20;2.57;;;;;;;;;;5046400;28;20231;-63
2021/12/07 06:26:19;;;;;;;3.30;2.13;;;;;;;;;;5045756;28;20091;-63
2021/12/07 06:28:46;;;;;;;3.83;2.10;;;;;;;;;;5045629;28;20149;-63
2021/12/07 06:31:13;;;;;;;3.38;2.15;;;;;;;;;;5043027;28;20077;-62
2021/12/07 06:33:39;;;;;;;3.05;2.10;;;;;;;;;;5047763;28;20079;-63
2021/12/07 06:36:06;;;;;;;2.42;1.73;;;;;;;;;;5045174;28;20073;-63
2021/12/07 06:38:33;;;;;;;2.35;1.70;;;;;;;;;;5045929;28;20071;-63
2021/12/07 06:41:01;;;;;;;3.45;1.77;;;;;;;;;;5037862;28;20092;-63
2021/12/07 06:43:27;;;;;;;3.43;2.20;;;;;;;;;;5046935;28;20127;-63
2021/12/07 06:45:56;;;;;;;2.73;2.00;;;;;;;;;;5040172;28;20053;-62
2021/12/07 06:48:22;;;;;;;2.38;1.88;;;;;;;;;;5044509;28;20493;-63
2021/12/07 06:50:49;;;;;;;2.67;1.90;;;;;;;;;;5041141;28;20136;-62
2021/12/07 06:53:16;;;;;;;3.65;2.33;;;;;;;;;;5035447;28;20308;-63
2021/12/07 06:55:42;;;;;;;2.17;1.55;;;;;;;;;;5043460;28;20111;-63
2021/12/07 06:58:09;;;;;;;4.00;2.15;;;;;;;;;;5042201;28;20132;-63
2021/12/07 07:00:37;;;;;;;4.85;2.00;;;;;;;;;;5040871;28;20083;-63
2021/12/07 07:03:04;;;;;;;2.27;1.90;;;;;;;;;;5042827;28;20570;-63
2021/12/07 07:05:30;;;;;;;3.58;1.88;;;;;;;;;;5046469;28;20510;-63
2021/12/07 07:07:57;;;;;;;4.43;2.13;;;;;;;;;;5044293;28;20423;-63
2021/12/07 07:10:24;;;;;;;3.92;1.80;;;;;;;;;;5040151;28;20100;-63
2021/12/07 07:12:51;;;;;;;5.28;2.00;;;;;;;;;;5043041;28;20132;-63
2021/12/07 07:15:18;;;;;;;3.90;2.33;;;;;;;;;;5045168;28;20075;-63
2021/12/07 07:17:44;;;;;;;4.97;2.80;;;;;;;;;;5037641;28;20045;-63
2021/12/07 07:20:12;;;;;;;2.92;1.98;;;;;;;;;;5037690;28;20045;-63
2021/12/07 07:22:39;;;;;;;4.40;2.53;;;;;;;;;;5037630;28;20095;-63
2021/12/07 07:25:06;;;;;;;2.33;1.75;;;;;;;;;;5040202;28;20132;-63
2021/12/07 07:27:33;;;;;;;2.00;1.75;;;;;;;;;;5045447;28;20061;-63
2021/12/07 07:30:00;;;;;;;5.47;2.05;;;;;;;;;;5040508;28;20096;-62
2021/12/07 07:32:26;;;;;;;3.28;1.70;;;;;;;;;;5039903;28;20048;-63
2021/12/07 07:34:53;;;;;;;4.28;1.83;;;;;;;;;;5043480;28;20088;-63
2021/12/07 07:37:20;;;;;;;3.85;2.30;;;;;;;;;;5046260;28;20120;-62
2021/12/07 07:39:46;;;;;;;4.73;2.40;;;;;;;;;;5041416;28;20168;-63
2021/12/07 07:42:13;;;;;;;3.15;2.17;;;;;;;;;;5040516;28;20532;-63
2021/12/07 07:44:39;;;;;;;7.72;1.90;;;;;;;;;;5041180;28;20053;-62
2021/12/07 07:47:06;;;;;;;4.20;1.88;;;;;;;;;;5025732;28;20092;-62
2021/12/07 07:49:33;;;;;;;22.55;2.35;;;;;;;;;;5041752;28;20483;-62
2021/12/07 07:51:59;;;;;;;3.50;2.20;;;;;;;;;;5053194;28;20136;-62
2021/12/07 07:54:28;;;;;;;3.00;1.70;;;;;;;;;;5036807;28;20132;-62
2021/12/07 07:56:54;;;;;;;3.07;2.40;;;;;;;;;;5042092;28;20456;-63
2021/12/07 07:59:21;;;;;;;3.38;2.10;;;;;;;;;;5039347;28;20083;-63
2021/12/07 08:01:48;;;;;;;2.70;1.67;;;;;;;;;;5042815;28;20128;-63
2021/12/07 08:04:14;;;;;;;5.00;2.50;;;;;;;;;;5039987;28;20055;-63
2021/12/07 08:06:42;;;;;;;5.00;2.50;;;;;;;;;;5029441;28;20088;-62
2021/12/07 08:09:08;;;;;;;1.93;1.70;;;;;;;;;;5037518;28;20052;-63
2021/12/07 08:11:35;;;;;;;2.83;2.00;;;;;;;;;;5042321;28;20393;-63
2021/12/07 08:14:02;;;;;;;;;;;;;;;;;;5031997;28;20091;-63
2021/12/07 08:16:29;;;;;;;3.60;2.03;;;;;;;;;;5041055;28;19921;-63
2021/12/07 08:18:55;;;;;;;4.70;2.30;;;;;;;;;;5040368;28;20138;-63
2021/12/07 08:21:23;;;;;;;2.72;2.00;;;;;;;;;;5050736;28;20057;-62
2021/12/07 08:23:49;;;;;;;2.78;2.17;;;;;;;;;;5042425;28;20124;-63
2021/12/07 08:26:17;;;;;;;2.97;2.10;;;;;;;;;;5042984;28;20144;-63
2021/12/07 08:28:48;;;;;;;3.63;2.47;;;;;;;;;;5044213;28;20501;-63
2021/12/07 08:31:14;;;;;;;3.28;1.90;;;;;;;;;;5048608;28;20081;-63
2021/12/07 08:33:41;;;;;;;2.58;1.90;;;;;;;;;;5045777;28;20053;-63
2021/12/07 08:36:08;;;;;;;3.72;2.75;;;;;;;;;;5042449;28;20103;-63
2021/12/07 08:38:35;;;;;;;4.18;2.53;;;;;;;;;;5045487;28;20065;-63
2021/12/07 08:41:01;;;;;;;1.60;1.50;;;;;;;;;;5044126;28;20584;-63
2021/12/07 08:43:29;;;;;;;3.85;2.40;;;;;;;;;;5044198;28;20053;-63
2021/12/07 08:45:59;;;;;;;4.47;2.70;;;;;;;;;;5048769;28;20067;-63
2021/12/07 08:48:26;;;;;;;4.27;2.63;;;;;;;;;;5047478;28;20479;-63
2021/12/07 08:50:53;;;;;;;4.73;2.67;;;;;;;;;;5048125;28;20132;-63
2021/12/07 08:53:21;;;;;;;3.40;2.50;;;;;;;;;;5044325;28;20089;-63
2021/12/07 09:01:19;;;;;;;3.77;2.57;;;;;;;;;;5046552;28;20144;-62
2021/12/07 09:03:48;;;;;;;3.27;2.27;;;;;;;;;;5042255;28;20127;-63
2021/12/07 09:06:14;;;;;;;3.22;2.10;;;;;;;;;;5043317;28;20536;-63
2021/12/07 09:08:41;;;;;;;4.10;2.40;;;;;;;;;;5042303;28;20049;-63
2021/12/07 09:11:10;;;;;;;3.05;2.30;;;;;;;;;;5044095;28;20437;-62
2021/12/07 09:13:37;;;;;;;6.20;2.77;;;;;;;;;;5045859;28;20140;-63
2021/12/07 09:16:04;;;;;;;6.87;2.43;;;;;;;;;;5044003;28;20050;-63
2021/12/07 09:18:31;;;;;;;4.35;2.47;;;;;;;;;;5042419;28;20485;-63
2021/12/07 09:20:58;;;;;;;4.03;2.20;;;;;;;;;;5032861;28;20081;-63
2021/12/07 09:23:25;;;;;;;5.35;2.65;;;;;;;;;;5023810;28;20451;-63
2021/12/07 09:25:52;;;;;;;6.05;2.75;;;;;;;;;;5021304;28;20078;-63
2021/12/07 09:28:19;;;;;;;3.88;2.35;;;;;;;;;;5022522;28;20137;-63
2021/12/07 09:30:51;;;;;;;4.32;2.58;;;;;;;;;;5025701;28;20050;-63
2021/12/07 09:33:26;;;;;;;4.23;2.40;;;;;;;;;;5019514;28;20085;-63
2021/12/07 09:35:53;;;;;;;2.93;2.20;;;;;;;;;;5025504;28;20099;-63
2021/12/07 09:38:24;;;;;;;4.13;2.27;;;;;;;;;;5027654;28;20056;-63
2021/12/07 09:40:52;;;;;;;3.53;2.40;;;;;;;;;;5022871;28;20129;-63
2021/12/07 09:43:19;;;;;;;2.70;1.90;;;;;;;;;;5019924;28;20123;-64
2021/12/07 09:45:46;;;;;;;3.25;2.20;;;;;;;;;;5024502;28;20092;-63
2021/12/07 09:48:13;;;;;;;3.97;2.25;;;;;;;;;;5023263;28;20492;-63
2021/12/07 09:50:42;;;;;;;3.53;2.42;;;;;;;;;;5018601;28;20073;-63
2021/12/07 09:53:10;;;;;;;2.50;2.13;;;;;;;;;;5023719;28;20077;-63
2021/12/07 09:55:37;;;;;;;5.93;2.00;;;;;;;;;;5023791;28;20144;-64
2021/12/07 09:58:03;;;;;;;4.20;2.50;;;;;;;;;;5019823;28;20144;-63
2021/12/07 10:00:31;;;;;;;2.90;2.13;;;;;;;;;;5021748;28;20499;-63
2021/12/07 10:02:57;;;;;;;3.05;2.15;;;;;;;;;;5017869;28;20096;-63
2021/12/07 10:05:25;;;;;;;6.05;2.33;;;;;;;;;;5021073;28;20049;-63
2021/12/07 10:07:52;;;;;;;3.50;2.10;;;;;;;;;;5020515;28;20137;-63
2021/12/07 10:10:18;;;;;;;5.30;2.67;;;;;;;;;;5019809;28;20088;-63
2021/12/07 10:12:45;;;;;;;3.67;2.30;;;;;;;;;;5018444;28;20072;-63
2021/12/07 10:15:12;;;;;;;4.95;2.72;;;;;;;;;;5021781;28;20492;-64
2021/12/07 10:17:39;;;;;;;3.40;1.80;;;;;;;;;;5028721;28;20140;-63
2021/12/07 10:20:33;;;;;;;4.10;2.15;;;;;;;;;;5019773;28;20104;-63
2021/12/07 10:23:05;;;;;;;4.77;2.57;;;;;;;;;;5016217;28;20150;-63
2021/12/07 10:25:33;;;;;;;4.03;2.28;;;;;;;;;;5023590;28;20046;-63
2021/12/07 10:27:59;;;;;;;3.00;2.30;;;;;;;;;;5022532;28;20132;-63
2021/12/07 10:30:27;;;;;;;8.18;2.42;;;;;;;;;;5022253;28;20124;-63
2021/12/07 10:32:57;;;;;;;2.97;2.30;;;;;;;;;;5019713;28;20100;-63
2021/12/07 10:35:27;;;;;;;3.45;2.38;;;;;;;;;;5014716;28;20085;-63
2021/12/07 10:38:13;;;;;;;3.10;2.17;;;;;;;;;;5019884;28;20046;-63
2021/12/07 10:41:00;;;;;;;5.20;2.55;;;;;;;;;;5019856;28;20045;-63
2021/12/07 10:44:10;;;;;;;3.08;2.40;;;;;;;;;;5022834;28;20117;-63
2021/12/07 10:46:44;;;;;;;4.97;2.42;;;;;;;;;;4932567;29;20614;-63
2021/12/07 10:49:10;;;;;;;3.42;1.90;;;;;;;;;;4922720;29;20763;-63
2021/12/07 10:51:37;;;;;;;4.07;2.00;;;;;;;;;;4976514;28;20107;-63
2021/12/07 10:54:04;;;;;;;1.77;1.50;;;;;;;;;;5017393;28;20501;-63
2021/12/07 10:56:35;;;;;;;4.03;2.40;;;;;;;;;;5023531;28;20148;-63
2021/12/07 10:59:03;;;;;;;4.22;2.50;;;;;;;;;;5019367;28;20446;-63
2021/12/07 11:01:29;;;;;;;;;;;;;;;;;;5019676;28;20076;-63
2021/12/07 11:04:16;;;;;;;3.63;2.10;;;;;;;;;;5027001;28;19925;-63
2021/12/07 11:07:01;;;;;;;4.20;2.35;;;;;;;;;;5022106;28;20088;-63
2021/12/07 11:09:28;;;;;;;4.95;2.40;;;;;;;;;;5016620;28;20089;-63
2021/12/07 11:12:07;;;;;;;5.15;1.98;;;;;;;;;;5020622;28;20104;-63
2021/12/07 11:14:52;;;;;;;4.80;2.30;;;;;;;;;;5022147;28;20568;-63
2021/12/07 11:17:22;;;;;;;5.55;2.53;;;;;;;;;;5016902;28;20490;-63
2021/12/07 11:19:49;;;;;;;3.25;2.33;;;;;;;;;;5025543;28;20054;-63
2021/12/07 11:22:17;;;;;;;5.18;2.38;;;;;;;;;;5040327;28;20093;-63
2021/12/07 11:24:45;;;;;;;5.75;2.13;;;;;;;;;;5041075;28;20076;-63
2021/12/07 11:29:58;;;;;;;3.67;2.27;;;;;;;;;;5042792;28;20080;-63
2021/12/07 11:32:25;;;;;;;2.38;1.70;;;;;;;;;;5043700;28;20095;-63
2021/12/07 11:34:51;;;;;;;3.30;2.30;;;;;;;;;;5047513;28;20175;-63
2021/12/07 11:37:22;;;;;;;4.47;1.93;;;;;;;;;;5042641;28;20720;-63
2021/12/07 11:39:52;;;;;;;3.78;2.17;;;;;;;;;;5040588;28;20299;-63
2021/12/07 11:42:21;;;;;;;5.50;2.40;;;;;;;;;;5042504;28;20491;-63
2021/12/07 11:45:10;;;;;;;3.50;2.30;;;;;;;;;;5039796;28;20157;-63
2021/12/07 11:47:40;;;;;;;2.42;2.03;;;;;;;;;;5039367;28;20091;-63
2021/12/07 11:50:24;;;;;;;4.75;2.70;;;;;;;;;;5036832;28;20136;-63
2021/12/07 11:52:53;;;;;;;3.00;2.08;;;;;;;;;;5040085;28;20049;-63
2021/12/07 11:55:20;;;;;;;3.25;2.30;;;;;;;;;;5041042;28;20403;-63
2021/12/07 11:57:46;;;;;;;5.18;2.33;;;;;;;;;;5038902;28;20107;-64
2021/12/07 12:00:17;;;;;;;3.22;2.20;;;;;;;;;;5038168;28;20115;-63
2021/12/07 12:02:43;;;;;;;4.75;2.30;;;;;;;;;;5040655;28;20037;-64
2021/12/07 12:05:10;;;;;;;2.58;1.90;;;;;;;;;;5046154;28;20125;-63
2021/12/07 12:07:41;;;;;;;1.48;1.30;;;;;;;;;;5034738;28;20128;-63
2021/12/07 12:10:09;;;;;;;2.72;2.08;;;;;;;;;;5039721;28;20084;-63
2021/12/07 12:12:54;;;;;;;2.20;1.50;;;;;;;;;;5039927;28;20049;-64
2021/12/07 12:15:25;;;;;;;3.20;1.77;;;;;;;;;;5037109;28;20080;-63
2021/12/07 12:17:51;;;;;;;2.50;1.70;;;;;;;;;;5041611;28;20148;-63
2021/12/07 12:20:26;;;;;;;3.03;1.63;;;;;;;;;;5037309;28;20125;-63
2021/12/07 12:22:59;;;;;;;3.50;2.17;;;;;;;;;;5018005;28;20045;-63
2021/12/07 12:25:27;;;;;;;1.63;1.42;;;;;;;;;;5021177;28;20085;-63
2021/12/07 12:27:58;;;;;;;1.98;1.58;;;;;;;;;;5022568;28;20100;-63
2021/12/07 12:30:27;;;;;;;4.07;2.05;;;;;;;;;;5023120;28;20072;-63
2021/12/07 12:33:00;;;;;;;2.42;1.45;;;;;;;;;;5026531;28;20085;-63
2021/12/07 12:35:34;;;;;;;3.15;1.45;;;;;;;;;;5020350;28;20148;-63
2021/12/07 12:38:01;;;;;;;3.10;1.50;;;;;;;;;;5022021;28;20065;-63
2021/12/07 12:40:30;;;;;;;2.42;1.30;;;;;;;;;;5021955;28;20137;-63
2021/12/07 12:42:57;;;;;;;1.70;1.35;;;;;;;;;;5019902;28;20112;-63
2021/12/07 12:45:25;;;;;;;;;;;;;;;;;;5019148;28;20610;-63
2021/12/07 12:47:54;;;;;;;1.30;0.87;;;;;;;;;;5024079;28;20341;-63
2021/12/07 12:50:23;;;;;;;2.38;1.38;;;;;;;;;;5012235;28;20142;-64
2021/12/07 12:52:57;;;;;;;2.13;1.60;;;;;;;;;;5017913;28;20512;-64
2021/12/07 12:55:27;;;;;;;4.45;1.60;;;;;;;;;;5022002;28;20674;-63
2021/12/07 12:57:54;;;;;;;3.75;1.88;;;;;;;;;;5019890;28;20104;-64
2021/12/07 13:00:21;;;;;;;3.33;1.20;;;;;;;;;;5020593;28;20136;-63
2021/12/07 13:03:07;;;;;;;1.25;1.15;;;;;;;;;;5022747;28;20444;-63
2021/12/07 13:05:36;;;;;;;2.15;1.20;;;;;;;;;;5018960;28;20409;-63
2021/12/07 13:08:16;;;;;;;3.22;1.40;;;;;;;;;;5021905;28;20476;-63
2021/12/07 13:10:58;;;;;;;1.50;1.33;;;;;;;;;;5024715;28;20049;-63
2021/12/07 13:13:35;;;;;;;2.25;1.48;;;;;;;;;;5024265;28;20081;-63
2021/12/07 13:16:28;;;;;;;1.30;1.20;;;;;;;;;;5024594;28;20100;-63
2021/12/07 13:19:01;;;;;;;1.40;1.25;;;;;;;;;;5018928;28;20501;-63
2021/12/07 13:21:30;;;;;;;2.40;1.27;;;;;;;;;;5046630;28;20472;-64
2021/12/07 13:23:58;;;;;;;1.25;1.15;;;;;;;;;;5042428;28;20053;-63
2021/12/07 13:26:24;;;;;;;2.08;1.52;;;;;;;;;;5045405;28;20073;-63
2021/12/07 13:29:02;;;;;;;1.45;1.30;;;;;;;;;;5043156;28;20073;-63
2021/12/07 13:31:35;;;;;;;1.13;0.80;;;;;;;;;;5044691;28;20080;-63
2021/12/07 13:34:03;;;;;;;1.85;1.60;;;;;;;;;;5039800;28;20060;-63
2021/12/07 13:36:30;;;;;;;1.30;1.17;;;;;;;;;;5044717;28;20080;-63
2021/12/07 13:39:05;;;;;;;2.20;1.77;;;;;;;;;;5045405;28;20099;-63
2021/12/07 13:41:32;;;;;;;1.67;1.38;;;;;;;;;;5045949;28;20505;-63
2021/12/07 13:43:58;;;;;;;3.70;2.03;;;;;;;;;;5042044;28;20515;-63
2021/12/07 13:46:26;;;;;;;3.70;2.13;;;;;;;;;;5041382;28;20326;-63
2021/12/07 13:49:01;;;;;;;1.73;1.13;;;;;;;;;;5044242;28;20051;-62
2021/12/07 13:51:28;;;;;;;2.88;1.75;;;;;;;;;;5042381;28;20482;-63
2021/12/07 13:53:55;;;;;;;;;;;;;;;;;;5042016;28;20509;-63
2021/12/07 13:56:21;;;;;;;2.20;1.90;;;;;;;;;;5044362;28;19995;-63
2021/12/07 13:58:48;;;;;;;2.75;1.33;;;;;;;;;;5045726;28;20049;-63
2021/12/07 14:01:14;;;;;;;2.80;1.57;;;;;;;;;;5043874;28;20121;-63
2021/12/07 14:03:42;;;;;;;2.15;1.83;;;;;;;;;;5047705;28;20290;-63
2021/12/07 14:06:09;;;;;;;1.85;1.63;;;;;;;;;;5041407;28;20045;-64
2021/12/07 14:08:36;;;;;;;2.20;1.45;;;;;;;;;;5046354;28;20091;-63
2021/12/07 14:11:03;;;;;;;2.72;2.13;;;;;;;;;;5044471;28;20406;-63
2021/12/07 14:13:29;;;;;;;1.88;1.42;;;;;;;;;;5046466;28;20140;-64
2021/12/07 14:16:06;;;;;;;2.00;1.77;;;;;;;;;;5043242;28;20044;-63
2021/12/07 14:18:35;;;;;;;1.85;1.52;;;;;;;;;;5049248;28;20049;-63
2021/12/07 14:21:04;;;;;;;3.50;1.70;;;;;;;;;;5043265;28;20052;-63
2021/12/07 14:23:31;;;;;;;4.80;1.80;;;;;;;;;;5043007;28;20143;-63
2021/12/07 14:25:59;;;;;;;3.15;1.60;;;;;;;;;;5043013;28;20144;-63
2021/12/07 14:28:31;;;;;;;3.20;1.60;;;;;;;;;;5041211;28;20128;-63
2021/12/07 14:31:00;;;;;;;2.75;1.85;;;;;;;;;;5039219;28;20067;-63
2021/12/07 14:33:27;;;;;;;2.22;1.70;;;;;;;;;;5038811;28;20129;-64
2021/12/07 14:35:53;;;;;;;1.57;1.47;;;;;;;;;;5040876;28;20416;-64
2021/12/07 14:38:20;;;;;;;3.03;2.40;;;;;;;;;;5044560;28;20056;-63
2021/12/07 14:40:46;;;;;;;3.97;1.80;;;;;;;;;;5042412;28;20571;-63
2021/12/07 14:43:15;;;;;;;6.17;3.50;;;;;;;;;;5043636;28;20079;-63
2021/12/07 14:45:41;;;;;;;2.58;1.90;;;;;;;;;;5045229;28;20085;-63
2021/12/07 14:48:08;;;;;;;1.90;1.27;;;;;;;;;;5041273;28;20515;-63
2021/12/07 14:50:42;;;;;;;3.13;1.90;;;;;;;;;;5044327;28;20511;-63
2021/12/07 14:53:08;;;;;;;1.50;1.40;;;;;;;;;;5040225;28;20503;-64
2021/12/07 14:55:38;;;;;;;2.50;1.77;;;;;;;;;;5047806;28;20131;-63
2021/12/07 14:58:05;;;;;;;2.03;1.67;;;;;;;;;;5042691;28;20505;-63
2021/12/07 15:00:32;;;;;;;2.00;1.75;;;;;;;;;;5040573;28;20045;-63
2021/12/07 15:02:59;;;;;;;5.00;1.98;;;;;;;;;;5043203;28;20512;-63
2021/12/07 15:05:26;;;;;;;2.50;1.60;;;;;;;;;;5041078;28;20108;-64
2021/12/07 15:07:53;;;;;;;2.10;1.60;;;;;;;;;;5042192;28;20083;-64
2021/12/07 15:10:20;;;;;;;3.10;1.67;;;;;;;;;;5041825;28;20129;-64
2021/12/07 15:12:47;;;;;;;2.28;1.60;;;;;;;;;;5043385;28;20421;-63
2021/12/07 15:15:15;;;;;;;;;;;;;;;;;;5042270;28;20412;-63
2021/12/07 15:17:43;;;;;;;4.18;2.10;;;;;;;;;;5040555;28;19921;-63
2021/12/07 15:20:11;;;;;;;3.17;2.00;;;;;;;;;;5039123;28;20053;-64
2021/12/07 15:22:38;;;;;;;2.67;2.10;;;;;;;;;;5039896;28;20100;-63
2021/12/07 15:25:05;;;;;;;2.50;1.80;;;;;;;;;;5041969;28;20582;-63
2021/12/07 15:27:31;;;;;;;2.50;1.67;;;;;;;;;;5042067;28;20467;-64
2021/12/07 15:29:58;;;;;;;2.88;1.73;;;;;;;;;;5044014;28;20073;-63
2021/12/07 15:32:25;;;;;;;3.05;1.80;;;;;;;;;;5046452;28;20135;-63
2021/12/07 15:34:53;;;;;;;5.30;4.03;;;;;;;;;;5047396;28;20059;-63
2021/12/07 15:37:21;;;;;;;4.72;2.63;;;;;;;;;;5041642;28;20284;-63
2021/12/07 15:39:50;;;;;;;2.90;2.08;;;;;;;;;;5041322;28;20132;-63
2021/12/07 15:42:19;;;;;;;3.50;2.10;;;;;;;;;;5041824;28;20734;-64
2021/12/07 15:44:53;;;;;;;2.15;1.58;;;;;;;;;;5043408;28;20049;-63
2021/12/07 15:47:24;;;;;;;3.13;2.17;;;;;;;;;;5041545;28;20053;-63
2021/12/07 15:49:53;;;;;;;5.85;2.45;;;;;;;;;;5040237;28;20049;-63
2021/12/07 15:52:21;;;;;;;2.42;1.95;;;;;;;;;;5043943;28;20076;-63
2021/12/07 15:55:02;;;;;;;3.30;2.10;;;;;;;;;;5040950;28;20127;-63
2021/12/07 15:57:38;;;;;;;4.07;2.28;;;;;;;;;;5038440;28;20041;-63
2021/12/07 16:00:06;;;;;;;3.10;2.13;;;;;;;;;;5037815;28;20169;-63
2021/12/07 16:02:32;;;;;;;3.30;1.90;;;;;;;;;;5038919;28;20145;-63
2021/12/07 16:05:07;;;;;;;3.13;1.80;;;;;;;;;;5041329;28;20132;-63
2021/12/07 16:07:40;;;;;;;4.43;2.03;;;;;;;;;;5037819;28;20500;-63
2021/12/07 16:10:09;;;;;;;3.25;2.30;;;;;;;;;;5043559;28;20132;-63
2021/12/07 16:12:36;;;;;;;3.50;2.17;;;;;;;;;;5040915;28;20515;-63
2021/12/07 16:15:10;;;;;;;3.42;1.95;;;;;;;;;;5035126;28;20144;-64
2021/12/07 16:17:37;;;;;;;3.63;2.05;;;;;;;;;;5041729;28;20144;-63
2021/12/07 16:20:05;;;;;;;2.53;1.87;;;;;;;;;;5044208;28;20084;-63
2021/12/07 16:22:31;;;;;;;4.32;2.03;;;;;;;;;;5043694;28;20152;-63
2021/12/07 16:24:58;;;;;;;4.23;1.63;;;;;;;;;;5036471;28;20137;-63
2021/12/07 16:27:24;;;;;;;3.42;2.00;;;;;;;;;;5041849;28;20474;-63
2021/12/07 16:29:51;;;;;;;3.67;1.88;;;;;;;;;;5041463;28;20475;-63
2021/12/07 16:32:17;;;;;;;5.53;1.92;;;;;;;;;;5037960;28;20121;-64
2021/12/07 16:34:45;;;;;;;2.90;2.00;;;;;;;;;;5039188;28;20128;-64
2021/12/07 16:37:12;;;;;;;3.10;1.53;;;;;;;;;;5043046;28;20073;-63
2021/12/07 16:39:39;;;;;;;4.05;2.13;;;;;;;;;;5043603;28;20103;-64
2021/12/07 16:42:05;;;;;;;4.10;2.20;;;;;;;;;;5028390;28;20079;-64